createdAt,value
2023-04-30T00:00:36.324Z,9.25
2023-04-30T00:03:03.154Z,10.23
2023-04-30T00:05:29.833Z,9.45
2023-04-30T00:07:56.625Z,9.00
2023-04-30T00:10:23.416Z,9.73
2023-04-30T00:12:50.017Z,9.38
2023-04-30T00:15:16.784Z,10.00
2023-04-30T00:17:43.458Z,9.23
2023-04-30T00:20:10.604Z,9.20
2023-04-30T00:22:37.249Z,8.45
2023-04-30T00:25:04.156Z,9.07
2023-04-30T00:27:30.917Z,8.50
2023-04-30T00:29:58.335Z,8.85
2023-04-30T00:32:25.090Z,8.73
2023-04-30T00:34:51.902Z,9.27
2023-04-30T00:37:18.497Z,9.55
2023-04-30T00:39:45.249Z,9.40
2023-04-30T00:42:11.901Z,9.45
2023-04-30T00:44:38.547Z,8.50
2023-04-30T00:47:05.165Z,9.57
2023-04-30T00:49:32.051Z,9.40
2023-04-30T00:51:58.773Z,9.77
2023-04-30T00:54:26.104Z,9.02
2023-04-30T00:56:52.747Z,9.40
2023-04-30T00:59:19.779Z,9.32
2023-04-30T01:01:46.532Z,9.20
2023-04-30T01:04:13.367Z,10.02
2023-04-30T01:06:40.326Z,9.25
2023-04-30T01:09:07.442Z,9.33
2023-04-30T01:11:50.010Z,8.90
2023-04-30T01:14:19.422Z,8.93
2023-04-30T01:16:59.169Z,9.15
2023-04-30T01:19:46.604Z,9.27
2023-04-30T01:22:41.729Z,9.13
2023-04-30T01:25:26.018Z,9.18
2023-04-30T01:28:17.972Z,9.18
2023-04-30T01:30:45.138Z,8.68
2023-04-30T01:33:13.191Z,9.15
2023-04-30T01:36:07.853Z,9.67
2023-04-30T01:39:08.399Z,10.15
2023-04-30T01:42:08.372Z,10.00
2023-04-30T01:44:53.229Z,8.88
2023-04-30T01:48:03.198Z,9.77
2023-04-30T01:50:41.858Z,8.93
2023-04-30T01:53:14.073Z,9.52
2023-04-30T01:55:44.272Z,9.85
2023-04-30T01:58:13.710Z,9.23
2023-04-30T02:00:40.600Z,9.80
2023-04-30T02:03:07.558Z,9.37
2023-04-30T02:05:34.346Z,9.98
2023-04-30T02:08:00.956Z,9.05
2023-04-30T02:10:28.095Z,10.25
2023-04-30T02:12:54.846Z,11.18
2023-04-30T02:15:21.586Z,10.30
2023-04-30T02:17:48.429Z,10.52
2023-04-30T02:20:15.503Z,10.20
2023-04-30T02:22:42.263Z,10.82
2023-04-30T02:25:09.418Z,10.52
2023-04-30T02:27:36.098Z,11.03
2023-04-30T02:30:02.919Z,11.15
2023-04-30T02:32:29.601Z,10.52
2023-04-30T02:34:56.579Z,10.60
2023-04-30T02:37:23.407Z,10.80
2023-04-30T02:39:50.072Z,10.67
2023-04-30T02:42:16.749Z,10.95
2023-04-30T02:44:43.326Z,10.57
2023-04-30T02:47:09.956Z,10.57
2023-04-30T02:49:36.606Z,10.82
2023-04-30T02:52:03.281Z,11.47
2023-04-30T02:54:29.872Z,10.35
2023-04-30T02:56:56.552Z,11.18
2023-04-30T02:59:23.206Z,11.68
2023-04-30T03:01:49.945Z,11.63
2023-04-30T03:04:16.663Z,10.77
2023-04-30T03:06:43.424Z,10.70
2023-04-30T03:09:10.076Z,11.32
2023-04-30T03:11:36.714Z,11.32
2023-04-30T03:14:04.027Z,11.32
2023-04-30T03:16:30.732Z,12.33
2023-04-30T03:18:57.450Z,14.23
2023-04-30T03:21:24.083Z,14.55
2023-04-30T03:23:50.718Z,13.48
2023-04-30T03:26:17.546Z,13.40
2023-04-30T03:28:44.284Z,13.83
2023-04-30T03:31:11.015Z,13.52
2023-04-30T03:33:37.801Z,12.02
2023-04-30T03:36:04.818Z,13.20
2023-04-30T03:38:31.468Z,13.02
2023-04-30T03:40:58.147Z,12.27
2023-04-30T03:43:24.759Z,12.48
2023-04-30T03:45:51.476Z,14.07
2023-04-30T03:48:18.422Z,13.38
2023-04-30T03:50:45.086Z,12.77
2023-04-30T03:53:12.080Z,13.57
2023-04-30T03:55:38.966Z,14.55
2023-04-30T03:58:05.722Z,13.65
2023-04-30T04:00:32.532Z,12.82
2023-04-30T04:02:59.324Z,12.40
2023-04-30T04:05:26.155Z,12.67
2023-04-30T04:07:52.744Z,12.65
2023-04-30T04:10:19.370Z,13.35
2023-04-30T04:12:46.278Z,13.27
2023-04-30T04:15:12.936Z,12.77
2023-04-30T04:17:39.569Z,12.60
2023-04-30T04:20:06.922Z,13.32
2023-04-30T04:22:33.750Z,13.00
2023-04-30T04:25:03.217Z,12.90
2023-04-30T04:27:29.935Z,12.02
2023-04-30T04:29:56.837Z,12.67
2023-04-30T04:32:23.766Z,11.40
2023-04-30T04:34:50.650Z,11.07
2023-04-30T04:37:17.254Z,11.02
2023-04-30T04:39:43.853Z,11.63
2023-04-30T04:42:10.470Z,11.57
2023-04-30T04:44:37.098Z,11.57
2023-04-30T04:47:04.147Z,10.93
2023-04-30T04:49:30.869Z,10.20
2023-04-30T04:51:57.615Z,10.35
2023-04-30T04:54:24.295Z,9.67
2023-04-30T04:56:51.091Z,9.60
2023-04-30T04:59:17.751Z,9.15
2023-04-30T05:01:44.704Z,9.32
2023-04-30T05:04:11.354Z,9.40
2023-04-30T05:06:38.156Z,9.07
2023-04-30T05:09:04.763Z,9.15
2023-04-30T05:11:31.508Z,7.95
2023-04-30T05:13:58.241Z,8.30
2023-04-30T05:16:24.996Z,8.10
2023-04-30T05:18:51.661Z,8.13
2023-04-30T05:21:18.344Z,7.72
2023-04-30T05:23:45.160Z,8.27
2023-04-30T05:26:11.902Z,7.05
2023-04-30T05:28:38.767Z,7.60
2023-04-30T05:31:05.486Z,8.20
2023-04-30T05:33:32.272Z,7.38
2023-04-30T05:35:58.996Z,7.18
2023-04-30T05:38:25.641Z,7.88
2023-04-30T05:40:52.343Z,7.20
2023-04-30T05:43:18.971Z,8.00
2023-04-30T05:45:45.655Z,7.38
2023-04-30T05:48:12.413Z,7.72
2023-04-30T05:50:39.038Z,7.97
2023-04-30T05:53:05.779Z,8.00
2023-04-30T05:55:32.408Z,7.53
2023-04-30T05:58:00.413Z,7.22
2023-04-30T06:00:27.036Z,6.95
2023-04-30T06:02:53.870Z,6.72
2023-04-30T06:05:20.617Z,6.78
2023-04-30T06:07:47.276Z,7.20
2023-04-30T06:10:13.857Z,7.18
2023-04-30T06:12:40.688Z,6.43
2023-04-30T06:15:07.680Z,6.53
2023-04-30T06:17:34.541Z,7.22
2023-04-30T06:20:01.370Z,6.83
2023-04-30T06:22:29.204Z,6.97
2023-04-30T06:24:55.860Z,7.43
2023-04-30T06:27:22.513Z,6.82
2023-04-30T06:29:49.156Z,6.75
2023-04-30T06:32:15.808Z,6.70
2023-04-30T06:34:42.455Z,7.00
2023-04-30T06:37:09.044Z,6.85
2023-04-30T06:39:35.767Z,7.35
2023-04-30T06:42:02.449Z,7.20
2023-04-30T06:44:29.081Z,7.47
2023-04-30T06:46:55.856Z,6.80
2023-04-30T06:49:22.576Z,7.45
2023-04-30T06:51:49.192Z,7.03
2023-04-30T06:54:15.955Z,6.45
2023-04-30T06:56:42.630Z,6.70
2023-04-30T06:59:09.109Z,6.25
2023-04-30T07:01:35.917Z,6.35
2023-04-30T07:04:02.634Z,6.47
2023-04-30T07:06:29.306Z,6.07
2023-04-30T07:08:56.075Z,7.23
2023-04-30T07:11:22.821Z,6.30
2023-04-30T07:13:49.486Z,5.80
2023-04-30T07:16:16.202Z,5.70
2023-04-30T07:18:43.314Z,6.90
2023-04-30T07:21:10.017Z,6.27
2023-04-30T07:23:36.667Z,6.60
2023-04-30T07:26:03.418Z,6.53
2023-04-30T07:28:30.010Z,7.10
2023-04-30T07:30:56.641Z,5.90
2023-04-30T07:33:23.494Z,5.90
2023-04-30T07:35:50.192Z,5.50
2023-04-30T07:38:16.882Z,4.88
2023-04-30T07:40:43.537Z,4.90
2023-04-30T07:43:10.184Z,5.22
2023-04-30T07:45:36.819Z,5.30
2023-04-30T07:48:03.610Z,4.63
2023-04-30T07:50:31.852Z,5.53
2023-04-30T07:52:58.560Z,5.63
2023-04-30T07:55:25.469Z,5.28
2023-04-30T07:57:52.126Z,4.80
2023-04-30T08:00:18.932Z,4.35
2023-04-30T08:02:45.727Z,4.97
2023-04-30T08:05:12.759Z,4.68
2023-04-30T08:07:39.569Z,4.90
2023-04-30T08:10:06.651Z,4.43
2023-04-30T08:12:36.585Z,4.97
2023-04-30T08:15:04.796Z,5.38
2023-04-30T08:17:32.527Z,5.00
2023-04-30T08:20:00.417Z,6.00
2023-04-30T08:22:27.180Z,5.40
2023-04-30T08:24:53.790Z,5.03
2023-04-30T08:27:20.442Z,4.88
2023-04-30T08:29:47.133Z,5.18
2023-04-30T08:32:14.074Z,4.85
2023-04-30T08:34:40.877Z,4.63
2023-04-30T08:37:07.623Z,5.30
2023-04-30T08:39:34.943Z,5.72
2023-04-30T08:42:09.421Z,5.40
2023-04-30T08:44:37.215Z,5.40
2023-04-30T08:47:04.406Z,5.37
2023-04-30T08:49:31.134Z,5.55
2023-04-30T08:51:57.828Z,5.25
2023-04-30T08:54:26.065Z,5.43
2023-04-30T08:56:52.880Z,5.70
2023-04-30T08:59:19.875Z,5.60
2023-04-30T09:01:46.706Z,5.55
2023-04-30T09:04:13.725Z,5.25
2023-04-30T09:06:40.650Z,5.30
2023-04-30T09:09:13.394Z,5.78
2023-04-30T09:11:40.119Z,5.90
2023-04-30T09:14:06.856Z,6.30
2023-04-30T09:16:48.373Z,5.88
2023-04-30T09:19:25.796Z,5.20
2023-04-30T09:21:53.279Z,5.78
2023-04-30T09:24:20.133Z,5.63
2023-04-30T09:26:47.189Z,6.10
2023-04-30T09:29:14.198Z,6.07
2023-04-30T09:31:44.712Z,5.88
2023-04-30T09:34:11.754Z,6.07
2023-04-30T09:36:51.441Z,5.40
2023-04-30T09:39:18.333Z,5.32
2023-04-30T09:41:45.005Z,5.53
2023-04-30T09:44:32.761Z,5.45
2023-04-30T09:46:59.606Z,6.28
2023-04-30T09:49:26.599Z,5.07
2023-04-30T09:52:00.928Z,5.07
2023-04-30T09:54:29.557Z,4.60
2023-04-30T09:57:04.201Z,4.88
2023-04-30T09:59:33.475Z,5.03
2023-04-30T10:02:02.303Z,4.80
2023-04-30T10:04:42.110Z,5.40
2023-04-30T10:07:10.852Z,4.63
2023-04-30T10:09:41.205Z,4.32
2023-04-30T10:12:14.880Z,4.63
2023-04-30T10:14:48.152Z,4.43
2023-04-30T10:17:17.156Z,4.88
2023-04-30T10:19:48.442Z,4.43
2023-04-30T10:22:16.399Z,3.90
2023-04-30T10:24:43.552Z,3.28
2023-04-30T10:27:10.323Z,4.13
2023-04-30T10:29:37.014Z,3.58
2023-04-30T10:32:04.606Z,3.72
2023-04-30T10:34:43.388Z,3.70
2023-04-30T10:37:51.076Z,3.70
2023-04-30T10:40:19.326Z,3.93
2023-04-30T10:42:48.309Z,3.88
2023-04-30T10:45:17.735Z,3.63
2023-04-30T10:47:44.890Z,3.50
2023-04-30T10:50:11.817Z,3.50
2023-04-30T10:52:39.020Z,3.50
2023-04-30T10:55:08.012Z,4.15
2023-04-30T10:57:47.081Z,4.25
2023-04-30T11:00:34.767Z,4.43
2023-04-30T11:03:04.250Z,3.80
2023-04-30T11:05:37.742Z,4.50
2023-04-30T11:08:05.372Z,4.25
2023-04-30T11:10:35.342Z,4.40
2023-04-30T11:13:07.062Z,4.30
2023-04-30T11:15:40.966Z,3.85
2023-04-30T11:18:09.152Z,3.40
2023-04-30T11:20:41.225Z,3.97
2023-04-30T11:23:37.917Z,4.47
2023-04-30T11:26:07.860Z,4.20
2023-04-30T11:28:34.831Z,3.60
2023-04-30T11:31:03.493Z,3.37
2023-04-30T11:33:31.624Z,3.97
2023-04-30T11:36:00.605Z,3.60
2023-04-30T11:38:31.040Z,3.58
2023-04-30T11:40:58.536Z,3.35
2023-04-30T11:43:29.817Z,4.20
2023-04-30T11:46:12.567Z,3.75
2023-04-30T11:48:44.304Z,3.63
2023-04-30T11:51:18.823Z,3.25
2023-04-30T11:53:50.199Z,4.43
2023-04-30T11:56:24.466Z,4.03
2023-04-30T11:58:54.273Z,2.92
2023-04-30T12:01:21.374Z,3.58
2023-04-30T12:03:50.850Z,3.45
2023-04-30T12:06:28.599Z,2.92
2023-04-30T12:08:57.071Z,3.00
2023-04-30T12:11:28.397Z,2.60
2023-04-30T12:14:02.249Z,2.40
2023-04-30T12:16:39.447Z,2.95
2023-04-30T12:19:06.147Z,2.40
2023-04-30T12:21:34.159Z,2.20
2023-04-30T12:24:02.868Z,1.92
2023-04-30T12:26:40.436Z,1.70
2023-04-30T12:29:12.069Z,1.73
2023-04-30T12:31:41.187Z,1.90
2023-04-30T12:34:12.501Z,2.30
2023-04-30T12:36:40.938Z,1.90
2023-04-30T12:39:09.115Z,1.88
2023-04-30T12:41:49.297Z,1.60
2023-04-30T12:44:21.635Z,1.92
2023-04-30T12:46:49.447Z,1.37
2023-04-30T12:49:33.984Z,1.23
2023-04-30T12:52:06.055Z,1.17
2023-04-30T12:54:32.801Z,1.30
2023-04-30T12:57:07.793Z,1.00
2023-04-30T12:59:37.581Z,1.53
2023-04-30T13:02:13.253Z,1.30
2023-04-30T13:04:41.624Z,1.40
2023-04-30T13:07:08.583Z,1.50
2023-04-30T13:09:37.074Z,1.08
2023-04-30T13:12:04.457Z,1.23
2023-04-30T13:14:32.177Z,1.00
2023-04-30T13:16:59.134Z,0.98
2023-04-30T13:19:25.817Z,1.52
2023-04-30T13:21:52.978Z,1.40
2023-04-30T13:24:19.615Z,1.00
2023-04-30T13:26:46.224Z,1.10
2023-04-30T13:29:15.679Z,1.00
2023-04-30T13:31:42.522Z,0.90
2023-04-30T13:34:10.061Z,1.00
2023-04-30T13:36:36.835Z,1.40
2023-04-30T13:39:03.748Z,0.90
2023-04-30T13:41:30.442Z,1.38
2023-04-30T13:43:57.162Z,1.00
2023-04-30T13:46:24.529Z,1.83
2023-04-30T13:48:51.358Z,1.30
2023-04-30T13:51:17.999Z,1.15
2023-04-30T13:53:44.759Z,1.27
2023-04-30T13:56:12.105Z,1.15
2023-04-30T13:58:38.909Z,1.20
2023-04-30T14:01:05.860Z,1.20
2023-04-30T14:03:32.557Z,1.30
2023-04-30T14:05:59.326Z,1.80
2023-04-30T14:08:26.037Z,1.20
2023-04-30T14:10:52.662Z,1.38
2023-04-30T14:13:19.292Z,1.30
2023-04-30T14:15:46.009Z,1.20
2023-04-30T14:18:12.686Z,1.20
2023-04-30T14:20:39.533Z,1.20
2023-04-30T14:23:06.178Z,1.23
2023-04-30T14:25:32.830Z,1.00
2023-04-30T14:27:59.541Z,1.40
2023-04-30T14:30:26.387Z,1.25
2023-04-30T14:32:53.098Z,1.10
2023-04-30T14:35:19.735Z,1.25
2023-04-30T14:37:46.542Z,1.30
2023-04-30T14:40:13.754Z,1.15
2023-04-30T14:42:40.490Z,0.95
2023-04-30T14:45:07.895Z,1.00
2023-04-30T14:47:34.598Z,0.82
2023-04-30T14:50:01.361Z,0.80
2023-04-30T14:52:31.231Z,0.80
2023-04-30T14:54:57.906Z,1.10
2023-04-30T14:57:24.889Z,1.00
2023-04-30T14:59:51.521Z,1.10
2023-04-30T15:02:18.301Z,1.00
2023-04-30T15:04:45.017Z,1.08
2023-04-30T15:07:14.581Z,0.90
2023-04-30T15:09:41.321Z,1.10
2023-04-30T15:12:07.907Z,1.40
2023-04-30T15:14:34.571Z,1.63
2023-04-30T15:17:01.310Z,1.40
2023-04-30T15:19:27.953Z,1.00
2023-04-30T15:21:54.569Z,1.20
2023-04-30T15:24:21.337Z,1.20
2023-04-30T15:26:48.098Z,1.00
2023-04-30T15:29:14.740Z,1.00
2023-04-30T15:31:41.437Z,1.20
2023-04-30T15:34:08.120Z,1.17
2023-04-30T15:36:34.824Z,1.20
2023-04-30T15:39:01.567Z,1.10
2023-04-30T15:41:28.176Z,1.10
2023-04-30T15:43:54.872Z,1.67
2023-04-30T15:46:21.598Z,1.30
2023-04-30T15:48:48.243Z,1.38
2023-04-30T15:51:14.950Z,2.00
2023-04-30T15:53:41.648Z,1.58
2023-04-30T15:56:08.763Z,1.40
2023-04-30T15:58:35.429Z,2.60
2023-04-30T16:01:02.092Z,2.10
2023-04-30T16:03:28.776Z,2.60
2023-04-30T16:05:55.677Z,2.38
2023-04-30T16:08:22.372Z,2.20
2023-04-30T16:10:49.107Z,2.25
2023-04-30T16:13:15.889Z,2.47
2023-04-30T16:15:42.555Z,2.00
2023-04-30T16:18:09.157Z,2.22
2023-04-30T16:20:37.534Z,2.75
2023-04-30T16:23:04.492Z,2.63
2023-04-30T16:25:31.150Z,2.85
2023-04-30T16:27:57.819Z,3.07
2023-04-30T16:30:24.491Z,3.35
2023-04-30T16:32:51.233Z,4.03
2023-04-30T16:35:17.874Z,3.17
2023-04-30T16:37:44.505Z,3.85
2023-04-30T16:40:11.474Z,3.23
2023-04-30T16:42:38.282Z,3.10
2023-04-30T16:45:05.260Z,3.33
2023-04-30T16:47:31.895Z,3.33
2023-04-30T16:49:58.866Z,2.90
2023-04-30T16:52:25.584Z,3.10
2023-04-30T16:54:52.267Z,2.72
2023-04-30T16:57:18.910Z,3.40
2023-04-30T16:59:45.585Z,3.05
2023-04-30T17:02:12.836Z,3.33
2023-04-30T17:04:39.576Z,3.10
2023-04-30T17:07:06.190Z,3.20
2023-04-30T17:09:32.924Z,3.50
2023-04-30T17:11:59.589Z,3.40
2023-04-30T17:14:26.283Z,3.45
2023-04-30T17:16:52.844Z,2.90
2023-04-30T17:19:19.476Z,3.75
2023-04-30T17:21:46.091Z,3.42
2023-04-30T17:24:12.871Z,3.40
2023-04-30T17:26:39.520Z,3.03
2023-04-30T17:29:06.404Z,3.30
2023-04-30T17:31:33.400Z,3.90
2023-04-30T17:34:00.113Z,3.35
2023-04-30T17:36:26.955Z,3.35
2023-04-30T17:38:54.125Z,3.40
2023-04-30T17:41:20.824Z,3.13
2023-04-30T17:43:47.498Z,3.03
2023-04-30T17:46:14.420Z,5.88
2023-04-30T17:48:41.134Z,3.53
2023-04-30T17:51:07.913Z,5.75
2023-04-30T17:53:34.517Z,4.30
2023-04-30T17:56:01.233Z,3.60
2023-04-30T17:58:27.979Z,3.33
2023-04-30T18:00:54.602Z,3.55
2023-04-30T18:03:21.385Z,4.75
2023-04-30T18:05:48.184Z,3.07
2023-04-30T18:08:14.802Z,3.22
2023-04-30T18:10:41.475Z,3.92
2023-04-30T18:13:08.197Z,3.40
2023-04-30T18:15:34.933Z,3.65
2023-04-30T18:18:01.685Z,3.87
2023-04-30T18:20:28.446Z,3.58
2023-04-30T18:22:55.081Z,4.07
2023-04-30T18:25:21.774Z,3.75
2023-04-30T18:27:48.573Z,3.50
2023-04-30T18:30:15.275Z,3.00
2023-04-30T18:32:43.029Z,3.80
2023-04-30T18:35:10.239Z,4.18
2023-04-30T18:37:36.896Z,3.40
2023-04-30T18:40:03.724Z,3.00
2023-04-30T18:42:30.451Z,3.17
2023-04-30T18:44:57.129Z,3.70
2023-04-30T18:47:23.792Z,3.33
2023-04-30T18:49:50.456Z,3.42
2023-04-30T18:52:17.119Z,3.40
2023-04-30T18:54:43.709Z,3.50
2023-04-30T18:57:10.524Z,3.22
2023-04-30T18:59:37.273Z,3.72
2023-04-30T19:02:03.944Z,3.20
2023-04-30T19:04:30.698Z,3.22
2023-04-30T19:06:57.449Z,3.40
2023-04-30T19:09:24.150Z,4.07
2023-04-30T19:11:50.813Z,4.80
2023-04-30T19:14:17.562Z,3.53
2023-04-30T19:16:44.242Z,4.15
2023-04-30T19:19:10.843Z,3.80
2023-04-30T19:21:37.515Z,3.88
2023-04-30T19:24:04.264Z,4.15
2023-04-30T19:26:32.482Z,5.13
2023-04-30T19:28:59.078Z,4.25
2023-04-30T19:31:25.779Z,4.40
2023-04-30T19:33:52.486Z,4.40
2023-04-30T19:36:19.341Z,4.00
2023-04-30T19:38:45.950Z,4.10
2023-04-30T19:41:12.595Z,3.90
2023-04-30T19:43:39.292Z,3.57
2023-04-30T19:46:05.992Z,4.20
2023-04-30T19:48:32.633Z,3.83
2023-04-30T19:50:59.289Z,4.03
2023-04-30T19:53:26.007Z,3.90
2023-04-30T19:55:52.917Z,4.00
2023-04-30T19:58:19.569Z,3.90
2023-04-30T20:00:46.364Z,4.05
2023-04-30T20:03:14.827Z,3.85
2023-04-30T20:05:41.828Z,3.45
2023-04-30T20:08:09.486Z,4.20
2023-04-30T20:10:38.427Z,4.03
2023-04-30T20:13:05.962Z,4.18
2023-04-30T20:15:33.101Z,4.10
2023-04-30T20:18:00.580Z,4.15
2023-04-30T20:20:28.569Z,4.00
2023-04-30T20:22:56.049Z,4.07
2023-04-30T20:25:23.728Z,4.28
2023-04-30T20:27:50.445Z,4.15
2023-04-30T20:30:17.220Z,4.47
2023-04-30T20:32:43.930Z,4.40
2023-04-30T20:35:10.654Z,4.55
2023-04-30T20:37:37.605Z,4.35
2023-04-30T20:40:04.673Z,4.38
2023-04-30T20:42:31.375Z,4.13
2023-04-30T20:44:58.075Z,4.17
2023-04-30T20:47:24.959Z,4.25
2023-04-30T20:49:51.578Z,4.72
2023-04-30T20:52:18.235Z,4.72
2023-04-30T20:54:45.473Z,4.40
2023-04-30T20:57:12.076Z,4.63
2023-04-30T20:59:38.736Z,4.82
2023-04-30T21:02:05.531Z,4.53
2023-04-30T21:04:32.270Z,4.20
2023-04-30T21:06:58.990Z,4.72
2023-04-30T21:09:25.665Z,4.10
2023-04-30T21:11:52.394Z,4.18
2023-04-30T21:14:19.061Z,4.97
2023-04-30T21:16:48.398Z,5.03
2023-04-30T21:19:15.063Z,5.60
2023-04-30T21:21:41.702Z,4.83
2023-04-30T21:24:08.359Z,5.35
2023-04-30T21:26:35.218Z,5.32
2023-04-30T21:29:02.419Z,5.00
2023-04-30T21:31:29.335Z,5.10
2023-04-30T21:33:56.133Z,5.57
2023-04-30T21:36:22.803Z,6.60
2023-04-30T21:38:49.613Z,7.30
2023-04-30T21:41:17.080Z,6.07
2023-04-30T21:43:44.446Z,4.97
2023-04-30T21:46:11.254Z,5.30
2023-04-30T21:48:37.926Z,4.72
2023-04-30T21:51:14.728Z,5.10
2023-04-30T21:53:42.012Z,5.22
2023-04-30T21:56:09.474Z,4.88
2023-04-30T21:58:37.014Z,4.77
2023-04-30T22:01:04.346Z,4.95
2023-04-30T22:03:32.015Z,5.00
2023-04-30T22:05:59.297Z,5.10
2023-04-30T22:08:26.067Z,4.60
2023-04-30T22:11:00.092Z,4.60
2023-04-30T22:13:29.621Z,4.88
2023-04-30T22:15:56.565Z,5.40
2023-04-30T22:18:23.836Z,4.70
2023-04-30T22:20:51.226Z,5.18
2023-04-30T22:23:20.753Z,5.17
2023-04-30T22:25:47.922Z,5.38
2023-04-30T22:28:14.688Z,4.78
2023-04-30T22:30:41.506Z,4.90
2023-04-30T22:33:08.300Z,5.45
2023-04-30T22:35:36.552Z,5.20
2023-04-30T22:38:03.200Z,5.25
2023-04-30T22:40:31.146Z,5.60
2023-04-30T22:42:59.138Z,5.10
2023-04-30T22:45:25.999Z,4.97
2023-04-30T22:47:53.822Z,5.17
2023-04-30T22:50:20.550Z,5.00
2023-04-30T22:52:47.267Z,5.13
2023-04-30T22:55:13.999Z,4.88
2023-04-30T22:57:40.693Z,4.85
2023-04-30T23:00:08.016Z,4.90
2023-04-30T23:02:34.724Z,4.75
2023-04-30T23:05:01.455Z,4.30
2023-04-30T23:07:28.078Z,4.70
2023-04-30T23:09:54.915Z,4.72
2023-04-30T23:12:21.803Z,4.13
2023-04-30T23:14:48.545Z,4.22
2023-04-30T23:17:15.207Z,4.45
2023-04-30T23:19:41.837Z,4.05
2023-04-30T23:22:08.558Z,3.80
2023-04-30T23:24:35.238Z,3.90
2023-04-30T23:27:02.665Z,3.47
2023-04-30T23:29:29.390Z,3.90
2023-04-30T23:31:56.099Z,3.72
2023-04-30T23:34:22.907Z,3.78
2023-04-30T23:36:49.651Z,3.57
2023-04-30T23:39:16.356Z,3.50
2023-04-30T23:41:43.023Z,3.60
2023-04-30T23:44:09.680Z,3.00
2023-04-30T23:46:36.555Z,3.30
2023-04-30T23:49:03.284Z,3.17
2023-04-30T23:51:30.046Z,3.38
2023-04-30T23:53:56.729Z,3.42
2023-04-30T23:56:23.300Z,3.10
2023-04-30T23:58:49.940Z,3.10
